sensor_id;sensor_type;location;lat;lon;timestamp;P1;durP1;ratioP1;P2;durP2;ratioP2
19643;SDS011;9970;-36.854;174.870;2023-05-07T00:00:23;22.67;;;6.60;;
19643;SDS011;9970;-36.854;174.870;2023-05-07T00:02:56;19.20;;;6.63;;
19643;SDS011;9970;-36.854;174.870;2023-05-07T00:05:29;12.80;;;5.33;;
19643;SDS011;9970;-36.854;174.870;2023-05-07T00:08:02;20.87;;;6.47;;
19643;SDS011;9970;-36.854;174.870;2023-05-07T00:10:35;31.67;;;7.60;;
19643;SDS011;9970;-36.854;174.870;2023-05-07T00:13:08;18.60;;;5.03;;
19643;SDS011;9970;-36.854;174.870;2023-05-07T00:15:41;23.57;;;6.23;;
19643;SDS011;9970;-36.854;174.870;2023-05-07T00:18:14;19.67;;;6.30;;
19643;SDS011;9970;-36.854;174.870;2023-05-07T00:20:48;20.30;;;5.50;;
19643;SDS011;9970;-36.854;174.870;2023-05-07T00:23:22;19.07;;;6.40;;
19643;SDS011;9970;-36.854;174.870;2023-05-07T00:25:55;19.03;;;5.87;;
19643;SDS011;9970;-36.854;174.870;2023-05-07T00:28:28;12.23;;;6.03;;
19643;SDS011;9970;-36.854;174.870;2023-05-07T00:31:01;14.40;;;5.53;;
19643;SDS011;9970;-36.854;174.870;2023-05-07T00:33:37;18.10;;;7.30;;
19643;SDS011;9970;-36.854;174.870;2023-05-07T00:36:10;22.70;;;6.80;;
19643;SDS011;9970;-36.854;174.870;2023-05-07T00:38:43;19.70;;;7.20;;
19643;SDS011;9970;-36.854;174.870;2023-05-07T00:41:16;13.37;;;5.87;;
19643;SDS011;9970;-36.854;174.870;2023-05-07T00:43:49;13.67;;;6.47;;
19643;SDS011;9970;-36.854;174.870;2023-05-07T00:46:22;30.70;;;8.40;;
19643;SDS011;9970;-36.854;174.870;2023-05-07T00:48:56;30.10;;;8.23;;
19643;SDS011;9970;-36.854;174.870;2023-05-07T00:51:30;16.47;;;7.23;;
19643;SDS011;9970;-36.854;174.870;2023-05-07T00:54:04;12.13;;;5.70;;
19643;SDS011;9970;-36.854;174.870;2023-05-07T00:56:38;20.23;;;6.43;;
19643;SDS011;9970;-36.854;174.870;2023-05-07T00:59:12;25.20;;;6.90;;
19643;SDS011;9970;-36.854;174.870;2023-05-07T01:01:45;17.37;;;4.60;;
19643;SDS011;9970;-36.854;174.870;2023-05-07T01:04:18;5.03;;;3.10;;
19643;SDS011;9970;-36.854;174.870;2023-05-07T01:06:51;5.03;;;3.03;;
19643;SDS011;9970;-36.854;174.870;2023-05-07T01:09:27;11.20;;;4.10;;
19643;SDS011;9970;-36.854;174.870;2023-05-07T01:12:00;8.97;;;3.20;;
19643;SDS011;9970;-36.854;174.870;2023-05-07T01:14:34;10.23;;;3.57;;
19643;SDS011;9970;-36.854;174.870;2023-05-07T01:20:18;8.40;;;4.10;;
19643;SDS011;9970;-36.854;174.870;2023-05-07T01:22:51;6.73;;;4.00;;
19643;SDS011;9970;-36.854;174.870;2023-05-07T01:25:24;12.83;;;4.70;;
19643;SDS011;9970;-36.854;174.870;2023-05-07T01:27:58;12.07;;;5.40;;
19643;SDS011;9970;-36.854;174.870;2023-05-07T01:30:31;11.50;;;4.97;;
19643;SDS011;9970;-36.854;174.870;2023-05-07T01:33:13;9.17;;;4.90;;
19643;SDS011;9970;-36.854;174.870;2023-05-07T01:35:43;7.97;;;4.17;;
19643;SDS011;9970;-36.854;174.870;2023-05-07T01:38:18;10.17;;;5.17;;
19643;SDS011;9970;-36.854;174.870;2023-05-07T01:40:52;13.53;;;4.97;;
19643;SDS011;9970;-36.854;174.870;2023-05-07T01:43:25;17.07;;;5.93;;
19643;SDS011;9970;-36.854;174.870;2023-05-07T01:45:59;11.00;;;4.00;;
19643;SDS011;9970;-36.854;174.870;2023-05-07T01:48:33;24.93;;;5.73;;
19643;SDS011;9970;-36.854;174.870;2023-05-07T01:51:06;9.83;;;3.90;;
19643;SDS011;9970;-36.854;174.870;2023-05-07T01:53:40;12.63;;;4.40;;
19643;SDS011;9970;-36.854;174.870;2023-05-07T01:56:14;10.70;;;5.20;;
19643;SDS011;9970;-36.854;174.870;2023-05-07T01:58:48;10.10;;;3.80;;
19643;SDS011;9970;-36.854;174.870;2023-05-07T02:01:22;9.87;;;5.33;;
19643;SDS011;9970;-36.854;174.870;2023-05-07T02:03:55;7.43;;;4.87;;
19643;SDS011;9970;-36.854;174.870;2023-05-07T02:06:28;8.30;;;4.43;;
19643;SDS011;9970;-36.854;174.870;2023-05-07T02:09:01;5.40;;;5.10;;
19643;SDS011;9970;-36.854;174.870;2023-05-07T02:11:34;16.33;;;4.83;;
19643;SDS011;9970;-36.854;174.870;2023-05-07T02:14:08;13.83;;;4.63;;
19643;SDS011;9970;-36.854;174.870;2023-05-07T02:16:41;19.60;;;4.33;;
19643;SDS011;9970;-36.854;174.870;2023-05-07T02:19:14;9.70;;;4.33;;
19643;SDS011;9970;-36.854;174.870;2023-05-07T02:21:47;21.63;;;5.27;;
19643;SDS011;9970;-36.854;174.870;2023-05-07T02:24:20;15.43;;;5.83;;
19643;SDS011;9970;-36.854;174.870;2023-05-07T02:26:53;22.40;;;4.80;;
19643;SDS011;9970;-36.854;174.870;2023-05-07T02:29:26;10.57;;;3.80;;
19643;SDS011;9970;-36.854;174.870;2023-05-07T02:31:59;7.07;;;3.33;;
19643;SDS011;9970;-36.854;174.870;2023-05-07T02:34:32;13.73;;;4.13;;
19643;SDS011;9970;-36.854;174.870;2023-05-07T02:37:05;8.37;;;4.60;;
19643;SDS011;9970;-36.854;174.870;2023-05-07T02:39:38;6.93;;;4.17;;
19643;SDS011;9970;-36.854;174.870;2023-05-07T02:42:11;4.40;;;3.60;;
19643;SDS011;9970;-36.854;174.870;2023-05-07T02:44:44;7.40;;;4.27;;
19643;SDS011;9970;-36.854;174.870;2023-05-07T02:47:17;9.03;;;4.07;;
19643;SDS011;9970;-36.854;174.870;2023-05-07T02:49:49;16.70;;;5.53;;
19643;SDS011;9970;-36.854;174.870;2023-05-07T02:52:22;10.63;;;4.70;;
19643;SDS011;9970;-36.854;174.870;2023-05-07T02:54:55;16.07;;;5.00;;
19643;SDS011;9970;-36.854;174.870;2023-05-07T02:57:29;10.43;;;3.83;;
19643;SDS011;9970;-36.854;174.870;2023-05-07T03:00:09;14.10;;;4.50;;
19643;SDS011;9970;-36.854;174.870;2023-05-07T03:02:53;7.03;;;4.47;;
19643;SDS011;9970;-36.854;174.870;2023-05-07T03:05:25;8.17;;;5.57;;
19643;SDS011;9970;-36.854;174.870;2023-05-07T03:07:59;8.10;;;4.17;;
19643;SDS011;9970;-36.854;174.870;2023-05-07T03:10:32;5.63;;;4.03;;
19643;SDS011;9970;-36.854;174.870;2023-05-07T03:13:05;13.20;;;4.93;;
19643;SDS011;9970;-36.854;174.870;2023-05-07T03:15:38;10.37;;;4.27;;
19643;SDS011;9970;-36.854;174.870;2023-05-07T03:18:11;22.57;;;5.60;;
19643;SDS011;9970;-36.854;174.870;2023-05-07T03:20:44;9.13;;;4.43;;
19643;SDS011;9970;-36.854;174.870;2023-05-07T03:23:17;5.97;;;4.30;;
19643;SDS011;9970;-36.854;174.870;2023-05-07T03:25:51;10.07;;;4.23;;
19643;SDS011;9970;-36.854;174.870;2023-05-07T03:28:24;11.97;;;4.70;;
19643;SDS011;9970;-36.854;174.870;2023-05-07T03:30:57;7.23;;;3.67;;
19643;SDS011;9970;-36.854;174.870;2023-05-07T03:33:32;9.30;;;4.17;;
19643;SDS011;9970;-36.854;174.870;2023-05-07T03:36:07;14.90;;;4.03;;
19643;SDS011;9970;-36.854;174.870;2023-05-07T03:38:40;10.10;;;3.50;;
19643;SDS011;9970;-36.854;174.870;2023-05-07T03:41:13;8.90;;;3.73;;
19643;SDS011;9970;-36.854;174.870;2023-05-07T03:43:46;15.23;;;4.70;;
19643;SDS011;9970;-36.854;174.870;2023-05-07T03:46:19;8.80;;;3.80;;
19643;SDS011;9970;-36.854;174.870;2023-05-07T03:48:52;6.50;;;4.07;;
19643;SDS011;9970;-36.854;174.870;2023-05-07T03:51:25;11.80;;;4.70;;
19643;SDS011;9970;-36.854;174.870;2023-05-07T03:53:57;11.67;;;3.93;;
19643;SDS011;9970;-36.854;174.870;2023-05-07T03:56:30;15.00;;;4.20;;
19643;SDS011;9970;-36.854;174.870;2023-05-07T03:59:03;13.63;;;4.17;;
19643;SDS011;9970;-36.854;174.870;2023-05-07T04:01:36;16.33;;;5.47;;
19643;SDS011;9970;-36.854;174.870;2023-05-07T04:04:09;8.70;;;4.63;;
19643;SDS011;9970;-36.854;174.870;2023-05-07T04:06:43;6.23;;;4.37;;
19643;SDS011;9970;-36.854;174.870;2023-05-07T04:09:16;7.33;;;3.80;;
19643;SDS011;9970;-36.854;174.870;2023-05-07T04:11:50;15.27;;;4.50;;
19643;SDS011;9970;-36.854;174.870;2023-05-07T04:14:23;16.80;;;5.27;;
19643;SDS011;9970;-36.854;174.870;2023-05-07T04:16:56;7.93;;;3.83;;
19643;SDS011;9970;-36.854;174.870;2023-05-07T04:19:29;4.73;;;3.77;;
19643;SDS011;9970;-36.854;174.870;2023-05-07T04:22:01;6.50;;;3.20;;
19643;SDS011;9970;-36.854;174.870;2023-05-07T04:24:35;31.63;;;14.00;;
19643;SDS011;9970;-36.854;174.870;2023-05-07T04:27:07;17.77;;;7.03;;
19643;SDS011;9970;-36.854;174.870;2023-05-07T04:29:40;7.80;;;4.17;;
19643;SDS011;9970;-36.854;174.870;2023-05-07T04:32:14;11.20;;;5.03;;
19643;SDS011;9970;-36.854;174.870;2023-05-07T04:34:47;12.83;;;4.20;;
19643;SDS011;9970;-36.854;174.870;2023-05-07T04:37:20;6.63;;;3.13;;
19643;SDS011;9970;-36.854;174.870;2023-05-07T04:39:53;7.80;;;3.10;;
19643;SDS011;9970;-36.854;174.870;2023-05-07T04:42:26;19.90;;;8.40;;
19643;SDS011;9970;-36.854;174.870;2023-05-07T04:44:59;5.90;;;3.40;;
19643;SDS011;9970;-36.854;174.870;2023-05-07T04:47:32;16.67;;;3.70;;
19643;SDS011;9970;-36.854;174.870;2023-05-07T04:50:05;8.10;;;3.30;;
19643;SDS011;9970;-36.854;174.870;2023-05-07T04:52:39;6.07;;;3.13;;
19643;SDS011;9970;-36.854;174.870;2023-05-07T04:55:12;11.20;;;4.67;;
19643;SDS011;9970;-36.854;174.870;2023-05-07T04:57:47;7.80;;;4.03;;
19643;SDS011;9970;-36.854;174.870;2023-05-07T05:00:20;43.63;;;10.33;;
19643;SDS011;9970;-36.854;174.870;2023-05-07T05:02:53;11.13;;;3.23;;
19643;SDS011;9970;-36.854;174.870;2023-05-07T05:05:26;9.03;;;5.30;;
19643;SDS011;9970;-36.854;174.870;2023-05-07T05:07:59;6.70;;;4.00;;
19643;SDS011;9970;-36.854;174.870;2023-05-07T05:10:32;5.50;;;2.50;;
19643;SDS011;9970;-36.854;174.870;2023-05-07T05:13:05;6.53;;;3.10;;
19643;SDS011;9970;-36.854;174.870;2023-05-07T05:15:39;6.23;;;3.50;;
19643;SDS011;9970;-36.854;174.870;2023-05-07T05:18:11;5.50;;;3.73;;
19643;SDS011;9970;-36.854;174.870;2023-05-07T05:20:44;10.00;;;3.50;;
19643;SDS011;9970;-36.854;174.870;2023-05-07T05:23:18;9.07;;;3.50;;
19643;SDS011;9970;-36.854;174.870;2023-05-07T05:25:54;7.93;;;3.00;;
19643;SDS011;9970;-36.854;174.870;2023-05-07T05:28:31;7.57;;;3.37;;
19643;SDS011;9970;-36.854;174.870;2023-05-07T05:31:04;7.87;;;3.47;;
19643;SDS011;9970;-36.854;174.870;2023-05-07T05:33:37;13.97;;;3.60;;
19643;SDS011;9970;-36.854;174.870;2023-05-07T05:36:10;7.97;;;3.83;;
19643;SDS011;9970;-36.854;174.870;2023-05-07T05:38:43;8.23;;;3.50;;
19643;SDS011;9970;-36.854;174.870;2023-05-07T05:41:18;6.60;;;3.30;;
19643;SDS011;9970;-36.854;174.870;2023-05-07T05:43:51;12.40;;;4.00;;
19643;SDS011;9970;-36.854;174.870;2023-05-07T05:46:24;11.07;;;3.77;;
19643;SDS011;9970;-36.854;174.870;2023-05-07T05:48:57;13.80;;;4.37;;
19643;SDS011;9970;-36.854;174.870;2023-05-07T05:51:30;8.53;;;3.27;;
19643;SDS011;9970;-36.854;174.870;2023-05-07T05:54:03;10.23;;;4.10;;
19643;SDS011;9970;-36.854;174.870;2023-05-07T05:56:36;7.20;;;3.23;;
19643;SDS011;9970;-36.854;174.870;2023-05-07T05:59:09;6.03;;;2.93;;
19643;SDS011;9970;-36.854;174.870;2023-05-07T06:01:43;11.30;;;4.00;;
19643;SDS011;9970;-36.854;174.870;2023-05-07T06:04:15;16.87;;;4.67;;
19643;SDS011;9970;-36.854;174.870;2023-05-07T06:06:48;7.63;;;3.30;;
19643;SDS011;9970;-36.854;174.870;2023-05-07T06:09:21;6.43;;;3.00;;
19643;SDS011;9970;-36.854;174.870;2023-05-07T06:11:57;9.10;;;4.07;;
19643;SDS011;9970;-36.854;174.870;2023-05-07T06:14:30;14.03;;;5.10;;
19643;SDS011;9970;-36.854;174.870;2023-05-07T06:17:03;7.20;;;3.40;;
19643;SDS011;9970;-36.854;174.870;2023-05-07T06:19:36;10.60;;;3.57;;
19643;SDS011;9970;-36.854;174.870;2023-05-07T06:22:13;10.07;;;3.73;;
19643;SDS011;9970;-36.854;174.870;2023-05-07T06:24:46;9.63;;;4.30;;
19643;SDS011;9970;-36.854;174.870;2023-05-07T06:27:19;7.10;;;3.20;;
19643;SDS011;9970;-36.854;174.870;2023-05-07T06:29:52;16.43;;;4.10;;
19643;SDS011;9970;-36.854;174.870;2023-05-07T06:32:25;19.93;;;5.43;;
19643;SDS011;9970;-36.854;174.870;2023-05-07T06:34:58;10.20;;;2.80;;
19643;SDS011;9970;-36.854;174.870;2023-05-07T06:37:30;5.87;;;2.93;;
19643;SDS011;9970;-36.854;174.870;2023-05-07T06:40:04;10.37;;;4.27;;
19643;SDS011;9970;-36.854;174.870;2023-05-07T06:42:38;8.73;;;3.30;;
19643;SDS011;9970;-36.854;174.870;2023-05-07T06:45:11;15.40;;;5.63;;
19643;SDS011;9970;-36.854;174.870;2023-05-07T06:47:44;14.90;;;3.57;;
19643;SDS011;9970;-36.854;174.870;2023-05-07T06:50:17;8.80;;;3.00;;
19643;SDS011;9970;-36.854;174.870;2023-05-07T06:52:50;13.77;;;3.67;;
19643;SDS011;9970;-36.854;174.870;2023-05-07T06:55:23;8.13;;;3.53;;
19643;SDS011;9970;-36.854;174.870;2023-05-07T06:57:56;10.43;;;4.07;;
19643;SDS011;9970;-36.854;174.870;2023-05-07T07:00:31;8.53;;;4.13;;
19643;SDS011;9970;-36.854;174.870;2023-05-07T07:03:04;7.43;;;3.70;;
19643;SDS011;9970;-36.854;174.870;2023-05-07T07:05:37;7.47;;;3.27;;
19643;SDS011;9970;-36.854;174.870;2023-05-07T07:08:11;13.27;;;4.10;;
19643;SDS011;9970;-36.854;174.870;2023-05-07T07:10:45;13.50;;;5.57;;
19643;SDS011;9970;-36.854;174.870;2023-05-07T07:13:18;10.63;;;3.10;;
19643;SDS011;9970;-36.854;174.870;2023-05-07T07:15:51;18.80;;;4.00;;
19643;SDS011;9970;-36.854;174.870;2023-05-07T07:18:25;11.77;;;4.30;;
19643;SDS011;9970;-36.854;174.870;2023-05-07T07:20:58;6.60;;;4.20;;
19643;SDS011;9970;-36.854;174.870;2023-05-07T07:23:32;15.67;;;3.60;;
19643;SDS011;9970;-36.854;174.870;2023-05-07T07:26:05;14.20;;;4.07;;
19643;SDS011;9970;-36.854;174.870;2023-05-07T07:28:44;14.87;;;5.53;;
19643;SDS011;9970;-36.854;174.870;2023-05-07T07:31:17;10.13;;;3.90;;
19643;SDS011;9970;-36.854;174.870;2023-05-07T07:33:50;12.57;;;4.90;;
19643;SDS011;9970;-36.854;174.870;2023-05-07T07:36:23;13.07;;;4.20;;
19643;SDS011;9970;-36.854;174.870;2023-05-07T07:38:57;8.37;;;4.53;;
19643;SDS011;9970;-36.854;174.870;2023-05-07T07:41:30;25.13;;;4.93;;
19643;SDS011;9970;-36.854;174.870;2023-05-07T07:44:03;21.27;;;5.57;;
19643;SDS011;9970;-36.854;174.870;2023-05-07T07:46:37;10.03;;;3.70;;
19643;SDS011;9970;-36.854;174.870;2023-05-07T07:49:10;14.73;;;4.20;;
19643;SDS011;9970;-36.854;174.870;2023-05-07T07:51:43;10.83;;;4.40;;
19643;SDS011;9970;-36.854;174.870;2023-05-07T07:54:16;8.53;;;3.20;;
19643;SDS011;9970;-36.854;174.870;2023-05-07T07:56:49;9.70;;;3.60;;
19643;SDS011;9970;-36.854;174.870;2023-05-07T07:59:22;8.73;;;3.00;;
19643;SDS011;9970;-36.854;174.870;2023-05-07T08:01:55;3.30;;;2.90;;
19643;SDS011;9970;-36.854;174.870;2023-05-07T08:04:27;7.40;;;3.80;;
19643;SDS011;9970;-36.854;174.870;2023-05-07T08:07:02;5.80;;;2.70;;
19643;SDS011;9970;-36.854;174.870;2023-05-07T08:09:35;9.20;;;3.40;;
19643;SDS011;9970;-36.854;174.870;2023-05-07T08:12:11;13.43;;;3.60;;
19643;SDS011;9970;-36.854;174.870;2023-05-07T08:14:48;6.93;;;2.37;;
19643;SDS011;9970;-36.854;174.870;2023-05-07T08:20:04;7.53;;;2.87;;
19643;SDS011;9970;-36.854;174.870;2023-05-07T08:22:38;5.17;;;2.47;;
19643;SDS011;9970;-36.854;174.870;2023-05-07T08:25:11;11.40;;;4.10;;
19643;SDS011;9970;-36.854;174.870;2023-05-07T08:27:48;11.43;;;3.20;;
19643;SDS011;9970;-36.854;174.870;2023-05-07T08:30:21;8.00;;;2.93;;
19643;SDS011;9970;-36.854;174.870;2023-05-07T08:32:53;4.17;;;2.83;;
19643;SDS011;9970;-36.854;174.870;2023-05-07T08:35:26;6.87;;;2.63;;
19643;SDS011;9970;-36.854;174.870;2023-05-07T08:37:59;4.00;;;2.83;;
19643;SDS011;9970;-36.854;174.870;2023-05-07T08:40:34;10.33;;;3.30;;
19643;SDS011;9970;-36.854;174.870;2023-05-07T08:43:07;5.73;;;3.03;;
19643;SDS011;9970;-36.854;174.870;2023-05-07T08:45:41;12.37;;;3.60;;
19643;SDS011;9970;-36.854;174.870;2023-05-07T08:48:16;8.63;;;4.20;;
19643;SDS011;9970;-36.854;174.870;2023-05-07T08:50:50;14.40;;;3.43;;
19643;SDS011;9970;-36.854;174.870;2023-05-07T08:53:23;7.40;;;3.20;;
19643;SDS011;9970;-36.854;174.870;2023-05-07T08:55:56;10.57;;;4.07;;
19643;SDS011;9970;-36.854;174.870;2023-05-07T08:58:29;4.63;;;2.37;;
19643;SDS011;9970;-36.854;174.870;2023-05-07T09:01:03;4.87;;;2.40;;
19643;SDS011;9970;-36.854;174.870;2023-05-07T09:03:37;5.97;;;2.47;;
19643;SDS011;9970;-36.854;174.870;2023-05-07T09:06:11;6.17;;;3.20;;
19643;SDS011;9970;-36.854;174.870;2023-05-07T09:08:50;3.93;;;1.80;;
19643;SDS011;9970;-36.854;174.870;2023-05-07T09:11:27;9.57;;;1.90;;
19643;SDS011;9970;-36.854;174.870;2023-05-07T09:14:02;8.70;;;2.20;;
19643;SDS011;9970;-36.854;174.870;2023-05-07T09:16:37;4.37;;;1.90;;
19643;SDS011;9970;-36.854;174.870;2023-05-07T09:19:13;6.00;;;3.20;;
19643;SDS011;9970;-36.854;174.870;2023-05-07T09:22:00;9.63;;;2.47;;
19643;SDS011;9970;-36.854;174.870;2023-05-07T09:24:36;5.40;;;2.90;;
19643;SDS011;9970;-36.854;174.870;2023-05-07T09:27:12;4.63;;;1.87;;
19643;SDS011;9970;-36.854;174.870;2023-05-07T09:29:47;8.37;;;2.63;;
19643;SDS011;9970;-36.854;174.870;2023-05-07T09:32:21;4.03;;;2.90;;
19643;SDS011;9970;-36.854;174.870;2023-05-07T09:35:02;4.27;;;2.27;;
19643;SDS011;9970;-36.854;174.870;2023-05-07T09:37:37;6.57;;;2.60;;
19643;SDS011;9970;-36.854;174.870;2023-05-07T09:40:24;6.33;;;2.13;;
19643;SDS011;9970;-36.854;174.870;2023-05-07T09:43:08;1.80;;;1.70;;
19643;SDS011;9970;-36.854;174.870;2023-05-07T09:45:41;5.90;;;2.10;;
19643;SDS011;9970;-36.854;174.870;2023-05-07T09:48:15;6.03;;;3.00;;
19643;SDS011;9970;-36.854;174.870;2023-05-07T09:50:49;3.70;;;2.20;;
19643;SDS011;9970;-36.854;174.870;2023-05-07T09:53:24;2.33;;;2.10;;
19643;SDS011;9970;-36.854;174.870;2023-05-07T09:55:57;5.73;;;3.00;;
19643;SDS011;9970;-36.854;174.870;2023-05-07T09:58:33;2.23;;;2.03;;
19643;SDS011;9970;-36.854;174.870;2023-05-07T10:01:08;3.63;;;1.77;;
19643;SDS011;9970;-36.854;174.870;2023-05-07T10:03:42;2.10;;;1.53;;
19643;SDS011;9970;-36.854;174.870;2023-05-07T10:06:16;4.43;;;1.50;;
19643;SDS011;9970;-36.854;174.870;2023-05-07T10:08:50;5.17;;;1.50;;
19643;SDS011;9970;-36.854;174.870;2023-05-07T10:11:23;1.30;;;1.30;;
19643;SDS011;9970;-36.854;174.870;2023-05-07T10:13:57;1.50;;;1.50;;
19643;SDS011;9970;-36.854;174.870;2023-05-07T10:16:32;3.00;;;1.60;;
19643;SDS011;9970;-36.854;174.870;2023-05-07T10:19:09;3.27;;;1.67;;
19643;SDS011;9970;-36.854;174.870;2023-05-07T10:21:44;1.77;;;1.60;;
19643;SDS011;9970;-36.854;174.870;2023-05-07T10:24:19;1.50;;;1.40;;
19643;SDS011;9970;-36.854;174.870;2023-05-07T10:26:53;3.33;;;2.23;;
19643;SDS011;9970;-36.854;174.870;2023-05-07T10:34:59;1.87;;;1.77;;
19643;SDS011;9970;-36.854;174.870;2023-05-07T10:37:33;1.80;;;1.70;;
19643;SDS011;9970;-36.854;174.870;2023-05-07T10:40:07;2.17;;;1.97;;
19643;SDS011;9970;-36.854;174.870;2023-05-07T10:43:43;3.10;;;1.83;;
19643;SDS011;9970;-36.854;174.870;2023-05-07T10:45:30;4.17;;;1.53;;
19643;SDS011;9970;-36.854;174.870;2023-05-07T10:50:47;1.73;;;1.70;;
19643;SDS011;9970;-36.854;174.870;2023-05-07T10:56:38;1.80;;;1.70;;
19643;SDS011;9970;-36.854;174.870;2023-05-07T10:58:45;1.70;;;1.60;;
19643;SDS011;9970;-36.854;174.870;2023-05-07T11:04:17;1.90;;;1.80;;
19643;SDS011;9970;-36.854;174.870;2023-05-07T11:07:25;2.73;;;2.03;;
19643;SDS011;9970;-36.854;174.870;2023-05-07T11:09:57;1.73;;;1.73;;
19643;SDS011;9970;-36.854;174.870;2023-05-07T11:15:12;3.53;;;1.73;;
19643;SDS011;9970;-36.854;174.870;2023-05-07T11:17:52;1.97;;;1.77;;
19643;SDS011;9970;-36.854;174.870;2023-05-07T11:26:10;2.10;;;1.97;;
19643;SDS011;9970;-36.854;174.870;2023-05-07T11:28:43;3.90;;;1.90;;
19643;SDS011;9970;-36.854;174.870;2023-05-07T11:31:17;3.80;;;2.03;;
19643;SDS011;9970;-36.854;174.870;2023-05-07T11:33:54;2.90;;;2.53;;
19643;SDS011;9970;-36.854;174.870;2023-05-07T11:36:32;4.23;;;2.10;;
19643;SDS011;9970;-36.854;174.870;2023-05-07T11:39:02;12.63;;;3.93;;
19643;SDS011;9970;-36.854;174.870;2023-05-07T11:41:35;2.13;;;1.67;;
19643;SDS011;9970;-36.854;174.870;2023-05-07T11:44:08;2.93;;;1.60;;
19643;SDS011;9970;-36.854;174.870;2023-05-07T11:46:43;3.90;;;1.80;;
19643;SDS011;9970;-36.854;174.870;2023-05-07T11:49:15;1.77;;;1.67;;
19643;SDS011;9970;-36.854;174.870;2023-05-07T11:51:48;12.00;;;3.30;;
19643;SDS011;9970;-36.854;174.870;2023-05-07T11:54:21;4.43;;;2.30;;
19643;SDS011;9970;-36.854;174.870;2023-05-07T11:56:55;5.23;;;2.83;;
19643;SDS011;9970;-36.854;174.870;2023-05-07T11:59:28;3.57;;;2.47;;
19643;SDS011;9970;-36.854;174.870;2023-05-07T12:02:01;5.30;;;2.50;;
19643;SDS011;9970;-36.854;174.870;2023-05-07T12:04:34;2.90;;;2.20;;
19643;SDS011;9970;-36.854;174.870;2023-05-07T12:07:12;8.00;;;3.00;;
19643;SDS011;9970;-36.854;174.870;2023-05-07T12:09:45;4.57;;;2.83;;
19643;SDS011;9970;-36.854;174.870;2023-05-07T12:12:18;7.17;;;2.90;;
19643;SDS011;9970;-36.854;174.870;2023-05-07T12:14:51;7.87;;;2.33;;
19643;SDS011;9970;-36.854;174.870;2023-05-07T12:17:24;6.10;;;2.10;;
19643;SDS011;9970;-36.854;174.870;2023-05-07T12:19:57;10.90;;;2.97;;
19643;SDS011;9970;-36.854;174.870;2023-05-07T12:22:30;7.63;;;3.17;;
19643;SDS011;9970;-36.854;174.870;2023-05-07T12:25:04;9.00;;;2.90;;
19643;SDS011;9970;-36.854;174.870;2023-05-07T12:27:38;6.97;;;3.90;;
19643;SDS011;9970;-36.854;174.870;2023-05-07T12:30:12;6.60;;;2.10;;
19643;SDS011;9970;-36.854;174.870;2023-05-07T12:32:45;2.20;;;2.00;;
19643;SDS011;9970;-36.854;174.870;2023-05-07T12:35:25;3.43;;;2.37;;
19643;SDS011;9970;-36.854;174.870;2023-05-07T12:38:01;7.70;;;2.47;;
19643;SDS011;9970;-36.854;174.870;2023-05-07T12:40:36;2.50;;;2.23;;
19643;SDS011;9970;-36.854;174.870;2023-05-07T12:43:29;12.00;;;3.13;;
19643;SDS011;9970;-36.854;174.870;2023-05-07T12:45:50;9.10;;;2.70;;
19643;SDS011;9970;-36.854;174.870;2023-05-07T12:48:24;9.83;;;3.00;;
19643;SDS011;9970;-36.854;174.870;2023-05-07T12:50:57;8.40;;;3.07;;
19643;SDS011;9970;-36.854;174.870;2023-05-07T12:53:31;7.80;;;3.47;;
19643;SDS011;9970;-36.854;174.870;2023-05-07T12:56:06;8.50;;;3.00;;
19643;SDS011;9970;-36.854;174.870;2023-05-07T12:58:39;6.23;;;3.77;;
19643;SDS011;9970;-36.854;174.870;2023-05-07T13:01:12;8.10;;;3.10;;
19643;SDS011;9970;-36.854;174.870;2023-05-07T13:03:48;12.23;;;3.20;;
19643;SDS011;9970;-36.854;174.870;2023-05-07T13:06:21;8.43;;;3.50;;
19643;SDS011;9970;-36.854;174.870;2023-05-07T13:08:54;9.50;;;3.27;;
19643;SDS011;9970;-36.854;174.870;2023-05-07T13:11:27;8.30;;;3.07;;
19643;SDS011;9970;-36.854;174.870;2023-05-07T13:14:00;11.00;;;3.90;;
19643;SDS011;9970;-36.854;174.870;2023-05-07T13:16:33;19.40;;;3.57;;
19643;SDS011;9970;-36.854;174.870;2023-05-07T13:19:06;8.23;;;4.20;;
19643;SDS011;9970;-36.854;174.870;2023-05-07T13:21:40;4.00;;;3.60;;
19643;SDS011;9970;-36.854;174.870;2023-05-07T13:24:12;11.83;;;4.30;;
19643;SDS011;9970;-36.854;174.870;2023-05-07T13:26:48;16.33;;;3.57;;
19643;SDS011;9970;-36.854;174.870;2023-05-07T13:29:21;5.57;;;3.20;;
19643;SDS011;9970;-36.854;174.870;2023-05-07T13:32:00;7.03;;;3.60;;
19643;SDS011;9970;-36.854;174.870;2023-05-07T13:34:29;10.90;;;3.93;;
19643;SDS011;9970;-36.854;174.870;2023-05-07T13:37:02;16.20;;;4.63;;
19643;SDS011;9970;-36.854;174.870;2023-05-07T13:39:36;6.50;;;3.40;;
19643;SDS011;9970;-36.854;174.870;2023-05-07T13:42:10;12.30;;;5.33;;
19643;SDS011;9970;-36.854;174.870;2023-05-07T13:44:43;9.73;;;2.90;;
19643;SDS011;9970;-36.854;174.870;2023-05-07T13:47:16;11.53;;;4.07;;
19643;SDS011;9970;-36.854;174.870;2023-05-07T13:49:50;11.13;;;3.90;;
19643;SDS011;9970;-36.854;174.870;2023-05-07T13:52:23;8.70;;;3.83;;
19643;SDS011;9970;-36.854;174.870;2023-05-07T13:54:56;5.70;;;2.60;;
19643;SDS011;9970;-36.854;174.870;2023-05-07T13:57:29;10.07;;;3.20;;
19643;SDS011;9970;-36.854;174.870;2023-05-07T14:00:04;16.43;;;4.40;;
19643;SDS011;9970;-36.854;174.870;2023-05-07T14:02:39;4.17;;;3.03;;
19643;SDS011;9970;-36.854;174.870;2023-05-07T14:05:12;7.73;;;2.90;;
19643;SDS011;9970;-36.854;174.870;2023-05-07T14:07:45;10.80;;;3.67;;
19643;SDS011;9970;-36.854;174.870;2023-05-07T14:10:18;5.60;;;3.07;;
19643;SDS011;9970;-36.854;174.870;2023-05-07T14:12:52;18.47;;;4.40;;
19643;SDS011;9970;-36.854;174.870;2023-05-07T14:15:25;8.37;;;3.03;;
19643;SDS011;9970;-36.854;174.870;2023-05-07T14:17:58;11.33;;;3.40;;
19643;SDS011;9970;-36.854;174.870;2023-05-07T14:20:31;10.27;;;2.63;;
19643;SDS011;9970;-36.854;174.870;2023-05-07T14:23:05;10.90;;;3.47;;
19643;SDS011;9970;-36.854;174.870;2023-05-07T14:25:39;5.03;;;3.03;;
19643;SDS011;9970;-36.854;174.870;2023-05-07T14:28:13;6.20;;;2.40;;
19643;SDS011;9970;-36.854;174.870;2023-05-07T14:30:46;9.57;;;2.80;;
19643;SDS011;9970;-36.854;174.870;2023-05-07T14:33:18;6.10;;;2.67;;
19643;SDS011;9970;-36.854;174.870;2023-05-07T14:35:51;10.13;;;3.90;;
19643;SDS011;9970;-36.854;174.870;2023-05-07T14:38:24;2.80;;;2.40;;
19643;SDS011;9970;-36.854;174.870;2023-05-07T14:40:57;2.97;;;2.63;;
19643;SDS011;9970;-36.854;174.870;2023-05-07T14:43:30;6.90;;;2.97;;
19643;SDS011;9970;-36.854;174.870;2023-05-07T14:46:02;10.10;;;2.50;;
19643;SDS011;9970;-36.854;174.870;2023-05-07T14:48:35;9.23;;;2.87;;
19643;SDS011;9970;-36.854;174.870;2023-05-07T14:51:08;10.77;;;3.70;;
19643;SDS011;9970;-36.854;174.870;2023-05-07T14:53:41;20.30;;;3.10;;
19643;SDS011;9970;-36.854;174.870;2023-05-07T14:56:14;6.40;;;3.13;;
19643;SDS011;9970;-36.854;174.870;2023-05-07T14:58:47;11.27;;;3.93;;
19643;SDS011;9970;-36.854;174.870;2023-05-07T15:01:20;8.57;;;2.90;;
19643;SDS011;9970;-36.854;174.870;2023-05-07T15:03:52;10.23;;;2.70;;
19643;SDS011;9970;-36.854;174.870;2023-05-07T15:06:26;8.03;;;2.70;;
19643;SDS011;9970;-36.854;174.870;2023-05-07T15:08:59;6.93;;;3.60;;
19643;SDS011;9970;-36.854;174.870;2023-05-07T15:11:32;4.90;;;3.00;;
19643;SDS011;9970;-36.854;174.870;2023-05-07T15:14:05;7.50;;;2.30;;
19643;SDS011;9970;-36.854;174.870;2023-05-07T15:16:42;9.83;;;2.53;;
19643;SDS011;9970;-36.854;174.870;2023-05-07T15:19:15;13.00;;;3.03;;
19643;SDS011;9970;-36.854;174.870;2023-05-07T15:21:48;6.50;;;2.70;;